createdAt,value
2023-10-07T00:01:47.047Z,102041.31
2023-10-07T00:04:19.094Z,102035.75
2023-10-07T00:06:56.705Z,102030.78
2023-10-07T00:09:27.567Z,102042.34
2023-10-07T00:12:03.485Z,102032.34
2023-10-07T00:14:32.564Z,102031.81
2023-10-07T00:16:59.799Z,102030.09
2023-10-07T00:19:29.730Z,102028.44
2023-10-07T00:22:00.854Z,102021.28
2023-10-07T00:24:36.594Z,102025.72
2023-10-07T00:27:03.872Z,102018.88
2023-10-07T00:29:44.403Z,102009.72
2023-10-07T00:32:16.879Z,102011.66
2023-10-07T00:34:57.470Z,102012.06
2023-10-07T00:37:39.770Z,102013.75
2023-10-07T00:40:30.999Z,102007.88
2023-10-07T00:43:08.173Z,102011.44
2023-10-07T00:45:35.695Z,102002.75
2023-10-07T00:48:12.541Z,102007.16
2023-10-07T00:50:46.720Z,101999.19
2023-10-07T00:53:31.145Z,101998.66
2023-10-07T00:56:00.856Z,101996.19
2023-10-07T00:58:36.834Z,101989.56
2023-10-07T01:01:10.481Z,101999.44
2023-10-07T01:04:01.734Z,101991.50
2023-10-07T01:06:45.221Z,101994.25
2023-10-07T01:09:16.931Z,101986.59
2023-10-07T01:11:47.507Z,101985.00
2023-10-07T01:14:15.063Z,101985.41
2023-10-07T01:16:44.740Z,101984.16
2023-10-07T01:19:15.130Z,101979.03
2023-10-07T01:22:00.172Z,101966.63
2023-10-07T01:24:39.602Z,101973.09
2023-10-07T01:27:39.140Z,101967.03
2023-10-07T01:30:20.752Z,101961.94
2023-10-07T01:33:11.644Z,101973.00
2023-10-07T01:35:54.999Z,101970.13
2023-10-07T01:38:21.944Z,101967.63
2023-10-07T01:40:57.381Z,101959.88
2023-10-07T01:43:26.287Z,101961.44
2023-10-07T01:45:56.314Z,101962.06
2023-10-07T01:48:31.791Z,101957.44
2023-10-07T01:51:03.619Z,101959.31
2023-10-07T01:53:40.478Z,101952.97
2023-10-07T01:56:08.790Z,101949.13
2023-10-07T01:58:46.396Z,101947.41
2023-10-07T02:01:17.997Z,101941.19
2023-10-07T02:03:47.718Z,101946.41
2023-10-07T02:06:19.573Z,101947.59
2023-10-07T02:08:47.720Z,101942.88
2023-10-07T02:11:20.050Z,101940.91
2023-10-07T02:13:49.999Z,101937.09
2023-10-07T02:16:18.355Z,101937.84
2023-10-07T02:18:53.065Z,101934.25
2023-10-07T02:21:22.300Z,101930.94
2023-10-07T02:23:56.409Z,101929.88
2023-10-07T02:26:29.202Z,101924.13
2023-10-07T02:29:07.912Z,101923.50
2023-10-07T02:31:44.439Z,101926.06
2023-10-07T02:34:23.026Z,101929.88
2023-10-07T02:37:06.283Z,101932.19
2023-10-07T02:39:49.924Z,101924.59
2023-10-07T02:42:23.218Z,101927.06
2023-10-07T02:44:56.540Z,101919.50
2023-10-07T02:47:34.411Z,101919.72
2023-10-07T02:50:10.100Z,101925.81
2023-10-07T02:52:38.062Z,101927.16
2023-10-07T02:55:20.762Z,101928.81
2023-10-07T02:57:57.168Z,101927.47
2023-10-07T03:00:40.175Z,101925.16
2023-10-07T03:03:32.781Z,101932.44
2023-10-07T03:06:00.357Z,101928.38
2023-10-07T03:08:50.511Z,101926.66
2023-10-07T03:11:23.815Z,101929.84
2023-10-07T03:14:05.030Z,101927.56
2023-10-07T03:16:37.496Z,101929.09
2023-10-07T03:19:04.899Z,101928.06
2023-10-07T03:21:42.857Z,101928.59
2023-10-07T03:24:36.718Z,101927.34
2023-10-07T03:27:25.868Z,101929.13
2023-10-07T03:30:03.129Z,101923.19
2023-10-07T03:32:33.789Z,101929.94
2023-10-07T03:35:01.100Z,101920.69
2023-10-07T03:37:35.450Z,101917.44
2023-10-07T03:40:26.327Z,101928.81
2023-10-07T03:43:02.641Z,101920.53
2023-10-07T03:45:33.076Z,101918.94
2023-10-07T03:48:12.231Z,101920.53
2023-10-07T03:50:39.347Z,101921.88
2023-10-07T03:53:07.005Z,101918.34
2023-10-07T03:55:42.854Z,101922.22
2023-10-07T03:58:10.089Z,101916.00
2023-10-07T04:00:37.443Z,101918.47
2023-10-07T04:03:10.862Z,101912.63
2023-10-07T04:05:43.444Z,101919.47
2023-10-07T04:08:15.206Z,101915.25
2023-10-07T04:10:47.072Z,101911.78
2023-10-07T04:13:22.958Z,101916.00
2023-10-07T04:15:53.038Z,101908.19
2023-10-07T04:18:30.854Z,101911.03
2023-10-07T04:21:01.393Z,101915.66
2023-10-07T04:23:34.630Z,101919.41
2023-10-07T04:26:10.518Z,101919.00
2023-10-07T04:28:41.092Z,101921.44
2023-10-07T04:31:14.498Z,101918.66
2023-10-07T04:33:45.325Z,101924.81
2023-10-07T04:36:15.337Z,101923.34
2023-10-07T04:38:55.500Z,101920.69
2023-10-07T04:41:23.814Z,101918.13
2023-10-07T04:44:16.382Z,101920.81
2023-10-07T04:46:57.585Z,101913.06
2023-10-07T04:49:37.427Z,101916.81
2023-10-07T04:52:08.427Z,101923.50
2023-10-07T04:54:37.330Z,101922.25
2023-10-07T04:57:11.778Z,101924.69
2023-10-07T04:59:47.423Z,101925.31
2023-10-07T05:02:17.394Z,101927.69
2023-10-07T05:04:52.228Z,101922.94
2023-10-07T05:07:26.083Z,101918.41
2023-10-07T05:09:54.390Z,101922.13
2023-10-07T05:12:21.598Z,101921.09
2023-10-07T05:14:49.494Z,101925.31
2023-10-07T05:17:18.231Z,101935.84
2023-10-07T05:19:47.761Z,101935.84
2023-10-07T05:22:17.828Z,101929.66
2023-10-07T05:24:53.166Z,101932.28
2023-10-07T05:27:20.365Z,101929.00
2023-10-07T05:29:48.300Z,101932.69
2023-10-07T05:32:15.492Z,101931.75
2023-10-07T05:34:43.206Z,101938.72
2023-10-07T05:37:13.342Z,101946.19
2023-10-07T05:39:42.922Z,101947.91
2023-10-07T05:42:13.498Z,101953.31
2023-10-07T05:44:41.921Z,101957.06
2023-10-07T05:47:11.213Z,101958.56
2023-10-07T05:49:39.651Z,101960.38
2023-10-07T05:52:07.093Z,101959.25
2023-10-07T05:54:35.101Z,101961.28
2023-10-07T05:57:08.459Z,101966.38
2023-10-07T05:59:36.173Z,101964.69
2023-10-07T06:02:08.629Z,101968.69
2023-10-07T06:04:36.481Z,101957.13
2023-10-07T06:07:10.261Z,101966.78
2023-10-07T06:09:43.437Z,101967.41
2023-10-07T06:12:10.743Z,101975.38
2023-10-07T06:14:37.800Z,101977.44
2023-10-07T06:17:07.954Z,101979.56
2023-10-07T06:19:39.420Z,101982.19
2023-10-07T06:22:13.516Z,101993.66
2023-10-07T06:24:42.170Z,101984.78
2023-10-07T06:27:13.543Z,101991.97
2023-10-07T06:29:50.314Z,101997.63
2023-10-07T06:32:42.984Z,101993.03
2023-10-07T06:35:19.609Z,101993.28
2023-10-07T06:37:48.270Z,101999.44
2023-10-07T06:40:31.868Z,102003.06
2023-10-07T06:43:05.752Z,102013.03
2023-10-07T06:45:40.487Z,102009.63
2023-10-07T06:48:10.915Z,102015.34
2023-10-07T06:50:43.009Z,102015.38
2023-10-07T06:53:13.396Z,102019.16
2023-10-07T06:55:47.448Z,102017.91
2023-10-07T06:58:16.154Z,102027.88
2023-10-07T07:00:49.479Z,102027.91
2023-10-07T07:03:19.717Z,102025.88
2023-10-07T07:05:48.116Z,102031.97
2023-10-07T07:08:24.398Z,102031.56
2023-10-07T07:10:57.961Z,102037.41
2023-10-07T07:13:29.069Z,102035.97
2023-10-07T07:16:07.961Z,102038.75
2023-10-07T07:18:35.231Z,102041.19
2023-10-07T07:21:18.485Z,102038.56
2023-10-07T07:23:57.498Z,102042.84
2023-10-07T07:26:32.304Z,102054.16
2023-10-07T07:29:00.339Z,102049.44
2023-10-07T07:31:35.976Z,102045.00
2023-10-07T07:34:09.948Z,102050.84
2023-10-07T07:36:40.843Z,102049.88
2023-10-07T07:39:19.243Z,102048.88
2023-10-07T07:41:59.548Z,102055.38
2023-10-07T07:44:38.432Z,102057.28
2023-10-07T07:47:05.900Z,102061.38
2023-10-07T07:49:33.970Z,102055.47
2023-10-07T07:52:05.163Z,102057.53
2023-10-07T07:54:33.439Z,102053.69
2023-10-07T07:57:06.092Z,102063.63
2023-10-07T07:59:34.505Z,102053.31
2023-10-07T08:02:14.767Z,102065.78
2023-10-07T08:04:52.286Z,102067.88
2023-10-07T08:07:29.343Z,102058.19
2023-10-07T08:09:59.776Z,102065.41
2023-10-07T08:12:37.944Z,102070.41
2023-10-07T08:15:15.553Z,102067.47
2023-10-07T08:17:46.718Z,102063.69
2023-10-07T08:20:14.789Z,102068.00
2023-10-07T08:22:53.142Z,102068.41
2023-10-07T08:25:47.821Z,102064.88
2023-10-07T08:28:49.345Z,102052.69
2023-10-07T08:31:27.566Z,102068.06
2023-10-07T08:34:06.484Z,102067.19
2023-10-07T08:36:38.509Z,102057.28
2023-10-07T08:39:10.982Z,102057.44
2023-10-07T08:41:53.428Z,102062.72
2023-10-07T08:44:33.268Z,102059.16
2023-10-07T08:47:08.443Z,102058.16
2023-10-07T08:49:38.080Z,102060.06
2023-10-07T08:52:20.420Z,102061.38
2023-10-07T08:54:48.703Z,102055.88
2023-10-07T08:57:23.905Z,102053.56
2023-10-07T09:00:01.419Z,102060.47
2023-10-07T09:02:32.001Z,102055.06
2023-10-07T09:05:00.740Z,102064.75
2023-10-07T09:07:38.477Z,102057.66
2023-10-07T09:10:17.308Z,102059.69
2023-10-07T09:12:48.105Z,102058.28
2023-10-07T09:15:38.837Z,102054.00
2023-10-07T09:18:11.841Z,102054.09
2023-10-07T09:20:46.700Z,102053.19
2023-10-07T09:23:27.673Z,102060.16
2023-10-07T09:26:07.518Z,102054.28
2023-10-07T09:28:39.826Z,102050.63
2023-10-07T09:31:11.148Z,102044.25
2023-10-07T09:33:38.217Z,102048.06
2023-10-07T09:36:26.567Z,102049.91
2023-10-07T09:39:08.911Z,102043.09
2023-10-07T09:42:04.858Z,102049.66
2023-10-07T09:44:33.365Z,102045.84
2023-10-07T09:47:14.863Z,102043.63
2023-10-07T09:49:42.896Z,102046.72
2023-10-07T09:52:19.384Z,102047.78
2023-10-07T09:55:20.287Z,102045.03
2023-10-07T09:58:19.452Z,102043.75
2023-10-07T10:01:39.720Z,102045.41
2023-10-07T10:04:29.919Z,102042.53
2023-10-07T10:07:27.476Z,102040.59
2023-10-07T10:10:17.773Z,102039.66
2023-10-07T10:12:55.131Z,102031.78
2023-10-07T10:15:37.752Z,102032.22
2023-10-07T10:18:31.452Z,102030.13
2023-10-07T10:21:06.248Z,102034.88
2023-10-07T10:23:34.579Z,102025.72
2023-10-07T10:26:23.614Z,102024.66
2023-10-07T10:29:18.479Z,102023.22
2023-10-07T10:32:01.030Z,102009.72
2023-10-07T10:34:28.694Z,102015.94
2023-10-07T10:37:00.688Z,102001.78
2023-10-07T10:39:41.061Z,102004.13
2023-10-07T10:42:16.501Z,101990.09
2023-10-07T10:44:49.708Z,101986.69
2023-10-07T10:47:22.056Z,101976.97
2023-10-07T10:49:56.582Z,101974.66
2023-10-07T10:52:24.208Z,101973.31
2023-10-07T10:54:54.395Z,101972.25
2023-10-07T10:57:25.875Z,101962.47
2023-10-07T10:59:53.374Z,101962.63
2023-10-07T11:02:26.666Z,101957.81
2023-10-07T11:04:57.525Z,101951.41
2023-10-07T11:07:26.735Z,101945.94
2023-10-07T11:09:54.778Z,101941.19
2023-10-07T11:12:28.798Z,101944.22
2023-10-07T11:15:09.455Z,101928.69
2023-10-07T11:17:43.300Z,101926.75
2023-10-07T11:20:14.510Z,101930.06
2023-10-07T11:22:43.866Z,101916.41
2023-10-07T11:25:17.744Z,101910.97
2023-10-07T11:27:50.720Z,101913.19
2023-10-07T11:30:18.020Z,101912.69
2023-10-07T11:32:46.017Z,101911.72
2023-10-07T11:35:33.391Z,101903.72
2023-10-07T11:38:04.377Z,101901.25
2023-10-07T11:40:33.022Z,101898.66
2023-10-07T11:43:06.154Z,101891.38
2023-10-07T11:45:34.281Z,101884.84
2023-10-07T11:48:02.111Z,101901.34
2023-10-07T11:50:30.762Z,101897.56
2023-10-07T11:52:58.611Z,101895.00
2023-10-07T11:55:25.748Z,101894.63
2023-10-07T11:57:52.692Z,101893.28
2023-10-07T12:00:30.078Z,101885.56
2023-10-07T12:02:59.185Z,101884.53
2023-10-07T12:05:29.405Z,101894.44
2023-10-07T12:08:02.738Z,101880.13
2023-10-07T12:10:38.227Z,101877.97
2023-10-07T12:13:16.340Z,101878.13
2023-10-07T12:18:20.897Z,101866.81
2023-10-07T12:20:47.935Z,101856.06
2023-10-07T12:23:15.194Z,101860.31
2023-10-07T12:25:43.034Z,101861.28
2023-10-07T12:28:10.185Z,101856.03
2023-10-07T12:30:37.155Z,101864.44
2023-10-07T12:33:04.440Z,101860.72
2023-10-07T12:35:33.603Z,101860.97
2023-10-07T12:38:01.613Z,101855.91
2023-10-07T12:40:31.897Z,101858.41
2023-10-07T12:43:07.652Z,101853.91
2023-10-07T12:45:38.206Z,101848.53
2023-10-07T12:48:06.237Z,101846.69
2023-10-07T12:50:35.130Z,101846.25
2023-10-07T12:53:05.796Z,101840.63
2023-10-07T12:55:45.788Z,101846.63
2023-10-07T12:58:17.317Z,101837.72
2023-10-07T13:00:44.737Z,101833.59
2023-10-07T13:03:14.466Z,101829.09
2023-10-07T13:05:44.330Z,101828.69
2023-10-07T13:08:17.245Z,101834.81
2023-10-07T13:10:44.948Z,101825.53
2023-10-07T13:13:15.741Z,101826.88
2023-10-07T13:15:44.126Z,101827.25
2023-10-07T13:18:11.661Z,101820.06
2023-10-07T13:20:40.682Z,101833.22
2023-10-07T13:23:07.876Z,101831.19
2023-10-07T13:25:38.161Z,101821.50
2023-10-07T13:28:09.018Z,101818.59
2023-10-07T13:30:37.077Z,101810.53
2023-10-07T13:33:06.828Z,101805.28
2023-10-07T13:35:39.149Z,101807.56
2023-10-07T13:38:06.469Z,101803.44
2023-10-07T13:40:39.100Z,101802.88
2023-10-07T13:43:08.387Z,101803.56
2023-10-07T13:45:35.854Z,101799.91
2023-10-07T13:48:05.265Z,101801.47
2023-10-07T13:50:32.329Z,101802.66
2023-10-07T13:52:59.457Z,101792.53
2023-10-07T13:55:35.370Z,101790.72
2023-10-07T13:58:02.689Z,101786.44
2023-10-07T14:00:36.385Z,101779.16
2023-10-07T14:03:07.473Z,101779.84
2023-10-07T14:05:38.255Z,101779.38
2023-10-07T14:08:18.249Z,101767.97
2023-10-07T14:10:53.943Z,101753.50
2023-10-07T14:13:39.536Z,101762.50
2023-10-07T14:18:43.761Z,101756.88
2023-10-07T14:21:18.235Z,101755.66
2023-10-07T14:23:45.919Z,101745.28
2023-10-07T14:26:15.857Z,101748.03
2023-10-07T14:28:49.684Z,101749.53
2023-10-07T14:31:22.436Z,101753.75
2023-10-07T14:33:50.279Z,101746.34
2023-10-07T14:36:19.909Z,101764.47
2023-10-07T14:38:47.267Z,101758.34
2023-10-07T14:41:15.193Z,101757.47
2023-10-07T14:43:42.713Z,101755.66
2023-10-07T14:46:12.980Z,101765.25
2023-10-07T14:48:47.632Z,101761.25
2023-10-07T14:51:15.522Z,101760.28
2023-10-07T14:53:42.568Z,101760.34
2023-10-07T14:56:18.501Z,101754.41
2023-10-07T14:58:49.232Z,101762.06
2023-10-07T15:01:27.379Z,101752.38
2023-10-07T15:03:56.221Z,101753.41
2023-10-07T15:06:24.027Z,101757.94
2023-10-07T15:08:52.245Z,101752.97
2023-10-07T15:11:20.688Z,101761.41
2023-10-07T15:13:51.358Z,101754.31
2023-10-07T15:16:19.226Z,101761.03
2023-10-07T15:18:48.011Z,101756.88
2023-10-07T15:21:16.108Z,101765.25
2023-10-07T15:23:43.936Z,101757.53
2023-10-07T15:26:13.019Z,101757.53
2023-10-07T15:28:41.346Z,101759.97
2023-10-07T15:31:10.306Z,101756.22
2023-10-07T15:33:57.537Z,101763.44
2023-10-07T15:36:25.870Z,101767.84
2023-10-07T15:38:53.911Z,101763.63
2023-10-07T15:41:23.064Z,101764.94
2023-10-07T15:44:00.842Z,101770.81
2023-10-07T15:46:28.096Z,101768.69
2023-10-07T15:48:59.813Z,101773.88
2023-10-07T15:51:27.801Z,101775.63
2023-10-07T15:53:57.826Z,101767.25
2023-10-07T15:56:25.752Z,101758.34
2023-10-07T15:58:53.259Z,101763.25
2023-10-07T16:01:20.614Z,101755.97
2023-10-07T16:03:48.183Z,101753.06
2023-10-07T16:06:16.581Z,101756.03
2023-10-07T16:08:57.903Z,101754.91
2023-10-07T16:11:32.155Z,101747.03
2023-10-07T16:14:02.324Z,101750.66
2023-10-07T16:16:38.575Z,101753.47
2023-10-07T16:19:08.582Z,101761.91
2023-10-07T16:21:40.137Z,101752.59
2023-10-07T16:24:15.083Z,101759.22
2023-10-07T16:26:44.236Z,101765.44
2023-10-07T16:29:18.392Z,101765.63
2023-10-07T16:31:45.659Z,101771.78
2023-10-07T16:34:13.158Z,101779.94
2023-10-07T16:36:40.404Z,101786.53
2023-10-07T16:39:11.173Z,101785.75
2023-10-07T16:41:38.789Z,101786.72
2023-10-07T16:44:13.747Z,101792.88
2023-10-07T16:46:49.952Z,101807.44
2023-10-07T16:49:16.966Z,101805.88
2023-10-07T16:51:51.942Z,101805.88
2023-10-07T16:54:24.950Z,101801.84
2023-10-07T16:56:51.909Z,101809.19
2023-10-07T16:59:19.098Z,101811.81
2023-10-07T17:01:47.184Z,101815.44
2023-10-07T17:04:14.495Z,101824.81
2023-10-07T17:06:42.284Z,101824.81
2023-10-07T17:09:11.492Z,101829.59
2023-10-07T17:11:39.882Z,101834.28
2023-10-07T17:14:10.142Z,101828.13
2023-10-07T17:16:37.611Z,101833.00
2023-10-07T17:19:04.903Z,101835.78
2023-10-07T17:21:32.837Z,101842.81
2023-10-07T17:24:01.846Z,101841.50
2023-10-07T17:26:28.974Z,101841.69
2023-10-07T17:28:56.233Z,101841.78
2023-10-07T17:31:24.387Z,101848.09
2023-10-07T17:33:51.610Z,101850.34
2023-10-07T17:36:20.502Z,101850.44
2023-10-07T17:38:47.863Z,101857.09
2023-10-07T17:41:23.547Z,101853.56
2023-10-07T17:43:50.887Z,101854.69
2023-10-07T17:46:17.979Z,101853.97
2023-10-07T17:48:46.684Z,101863.16
2023-10-07T17:51:13.708Z,101864.34
2023-10-07T17:53:45.090Z,101869.72
2023-10-07T17:56:15.218Z,101866.94
2023-10-07T17:58:44.460Z,101867.03
2023-10-07T18:01:11.547Z,101859.34
2023-10-07T18:03:39.442Z,101859.84
2023-10-07T18:06:07.320Z,101862.47
2023-10-07T18:08:45.126Z,101866.19
2023-10-07T18:11:18.640Z,101862.78
2023-10-07T18:13:48.119Z,101864.69
2023-10-07T18:16:16.957Z,101868.66
2023-10-07T18:18:44.924Z,101880.28
2023-10-07T18:21:12.131Z,101875.94
2023-10-07T18:23:40.854Z,101887.34
2023-10-07T18:26:08.077Z,101884.41
2023-10-07T18:28:40.185Z,101882.97
2023-10-07T18:31:10.257Z,101880.72
2023-10-07T18:33:38.951Z,101894.06
2023-10-07T18:36:10.009Z,101885.81
2023-10-07T18:38:37.685Z,101883.63
2023-10-07T18:41:10.357Z,101891.75
2023-10-07T18:43:39.427Z,101891.75
2023-10-07T18:46:13.291Z,101898.19
2023-10-07T18:48:41.655Z,101900.78
2023-10-07T18:51:15.607Z,101898.91
2023-10-07T18:53:47.686Z,101901.88
2023-10-07T18:56:15.487Z,101902.84
2023-10-07T18:58:42.769Z,101904.97
2023-10-07T19:01:12.104Z,101906.97
2023-10-07T19:03:39.508Z,101907.72
2023-10-07T19:06:07.212Z,101901.88
2023-10-07T19:08:34.825Z,101912.59
2023-10-07T19:11:07.655Z,101909.47
2023-10-07T19:13:44.320Z,101906.16
2023-10-07T19:16:19.297Z,101920.97
2023-10-07T19:18:46.803Z,101922.22
2023-10-07T19:21:20.095Z,101920.25
2023-10-07T19:23:48.586Z,101919.88
2023-10-07T19:26:17.353Z,101917.41
2023-10-07T19:28:48.964Z,101922.38
2023-10-07T19:31:19.420Z,101928.81
2023-10-07T19:33:52.326Z,101926.22
2023-10-07T19:36:19.877Z,101930.72
2023-10-07T19:38:47.703Z,101936.44
2023-10-07T19:41:15.313Z,101933.84
2023-10-07T19:43:42.633Z,101937.28
2023-10-07T19:46:09.824Z,101938.41
2023-10-07T19:48:40.289Z,101939.34
2023-10-07T19:51:07.401Z,101942.03
2023-10-07T19:53:41.901Z,101953.59
2023-10-07T19:56:09.637Z,101954.94
2023-10-07T19:58:38.554Z,101956.91
2023-10-07T20:01:11.178Z,101958.78
2023-10-07T20:03:39.420Z,101964.63
2023-10-07T20:06:13.152Z,101959.81
2023-10-07T20:08:44.374Z,101962.53
2023-10-07T20:11:11.588Z,101965.22
2023-10-07T20:13:44.758Z,101975.41
2023-10-07T20:16:17.255Z,101973.03
2023-10-07T20:18:46.935Z,101978.97
2023-10-07T20:21:16.929Z,101977.66
2023-10-07T20:23:48.553Z,101973.69
2023-10-07T20:26:17.685Z,101978.22
2023-10-07T20:28:45.956Z,101981.88
2023-10-07T20:31:17.973Z,101981.28
2023-10-07T20:33:50.249Z,101992.63
2023-10-07T20:36:18.781Z,101992.34
2023-10-07T20:38:47.357Z,101998.50
2023-10-07T20:41:17.191Z,101992.53
2023-10-07T20:43:45.800Z,101996.09
2023-10-07T20:46:13.173Z,101986.03
2023-10-07T20:48:44.837Z,102005.22
2023-10-07T20:51:25.301Z,102000.22
2023-10-07T20:53:53.370Z,102006.66
2023-10-07T20:56:22.070Z,102011.78
2023-10-07T20:58:52.404Z,102000.78
2023-10-07T21:01:21.819Z,101999.03
2023-10-07T21:03:51.828Z,101999.13
2023-10-07T21:06:22.358Z,101995.59
2023-10-07T21:08:53.487Z,101995.22
2023-10-07T21:11:25.140Z,101992.28
2023-10-07T21:13:57.331Z,101998.19
2023-10-07T21:16:24.260Z,101997.72
2023-10-07T21:19:03.481Z,102002.44
2023-10-07T21:21:31.166Z,101990.94
2023-10-07T21:23:58.713Z,101997.59
2023-10-07T21:26:29.346Z,101988.66
2023-10-07T21:28:58.727Z,101994.47
2023-10-07T21:31:35.518Z,101993.69
2023-10-07T21:34:04.029Z,101992.47
2023-10-07T21:36:33.961Z,101988.88
2023-10-07T21:39:14.142Z,101990.88
2023-10-07T21:41:53.907Z,101988.94
2023-10-07T21:44:35.479Z,101984.03
2023-10-07T21:47:24.168Z,101994.16
2023-10-07T21:49:56.060Z,101988.47
2023-10-07T21:52:26.456Z,101980.16
2023-10-07T21:54:54.132Z,101969.28
2023-10-07T21:57:21.314Z,101980.91
2023-10-07T21:59:48.422Z,101986.25
2023-10-07T22:02:19.437Z,101983.13
2023-10-07T22:04:52.536Z,101983.41
2023-10-07T22:07:21.602Z,101988.88
2023-10-07T22:09:54.259Z,101985.16
2023-10-07T22:12:22.935Z,101981.81
2023-10-07T22:14:51.492Z,101971.31
2023-10-07T22:17:20.804Z,101968.38
2023-10-07T22:19:48.634Z,101972.66
2023-10-07T22:22:19.002Z,101976.72
2023-10-07T22:24:46.726Z,101971.38
2023-10-07T22:27:23.348Z,101981.28
2023-10-07T22:29:55.795Z,101977.97
2023-10-07T22:32:27.595Z,101975.78
2023-10-07T22:35:16.081Z,101975.22
2023-10-07T22:37:53.814Z,101969.28
2023-10-07T22:40:25.100Z,101964.50
2023-10-07T22:42:56.017Z,101969.50
2023-10-07T22:45:43.460Z,101970.84
2023-10-07T22:48:21.573Z,101968.88
2023-10-07T22:50:54.860Z,101967.69
2023-10-07T22:53:28.291Z,101969.94
2023-10-07T22:55:59.400Z,101970.72
2023-10-07T22:58:35.001Z,101962.34
2023-10-07T23:01:09.265Z,101951.69
2023-10-07T23:03:37.813Z,101952.84
2023-10-07T23:06:18.621Z,101951.94
2023-10-07T23:08:54.389Z,101949.88
2023-10-07T23:11:41.834Z,101944.69
2023-10-07T23:14:27.448Z,101951.34
2023-10-07T23:16:55.836Z,101943.53
2023-10-07T23:19:25.282Z,101943.25
2023-10-07T23:21:52.772Z,101934.72
2023-10-07T23:24:55.885Z,101935.72
2023-10-07T23:27:24.857Z,101937.50
2023-10-07T23:29:56.325Z,101929.09
2023-10-07T23:32:24.349Z,101932.84
2023-10-07T23:35:17.988Z,101936.47
2023-10-07T23:37:52.470Z,101933.63
2023-10-07T23:40:32.237Z,101935.72
2023-10-07T23:43:11.458Z,101935.06
2023-10-07T23:45:48.086Z,101940.41
2023-10-07T23:48:20.570Z,101938.41
2023-10-07T23:50:51.035Z,101949.75
2023-10-07T23:53:26.408Z,101943.66
2023-10-07T23:56:14.068Z,101945.91
2023-10-07T23:58:51.682Z,101947.78
